sensor_id;sensor_type;location;lat;lon;timestamp;temperature;humidity
20045;DHT22;10183;47.808;9.476;2023-02-13T00:01:32;1.80;99.90
20045;DHT22;10183;47.808;9.476;2023-02-13T00:03:59;1.80;99.90
20045;DHT22;10183;47.808;9.476;2023-02-13T00:06:25;1.80;99.90
20045;DHT22;10183;47.808;9.476;2023-02-13T00:08:51;1.80;99.90
20045;DHT22;10183;47.808;9.476;2023-02-13T00:11:18;1.80;99.90
20045;DHT22;10183;47.808;9.476;2023-02-13T00:13:45;1.80;99.90
20045;DHT22;10183;47.808;9.476;2023-02-13T00:16:11;1.80;99.90
20045;DHT22;10183;47.808;9.476;2023-02-13T00:18:38;1.80;99.90
20045;DHT22;10183;47.808;9.476;2023-02-13T00:21:09;1.80;99.90
20045;DHT22;10183;47.808;9.476;2023-02-13T00:23:37;1.80;99.90
20045;DHT22;10183;47.808;9.476;2023-02-13T00:26:10;1.80;99.90
20045;DHT22;10183;47.808;9.476;2023-02-13T00:28:37;1.80;99.90
20045;DHT22;10183;47.808;9.476;2023-02-13T00:31:12;1.80;99.90
20045;DHT22;10183;47.808;9.476;2023-02-13T00:33:39;1.80;99.90
20045;DHT22;10183;47.808;9.476;2023-02-13T00:36:13;1.80;99.90
20045;DHT22;10183;47.808;9.476;2023-02-13T00:38:40;1.80;99.90
20045;DHT22;10183;47.808;9.476;2023-02-13T00:41:08;1.70;99.90
20045;DHT22;10183;47.808;9.476;2023-02-13T00:43:34;1.70;99.90
20045;DHT22;10183;47.808;9.476;2023-02-13T00:46:01;1.70;99.90
20045;DHT22;10183;47.808;9.476;2023-02-13T00:48:28;1.80;99.90
20045;DHT22;10183;47.808;9.476;2023-02-13T00:50:54;1.80;99.90
20045;DHT22;10183;47.808;9.476;2023-02-13T00:53:22;1.80;99.90
20045;DHT22;10183;47.808;9.476;2023-02-13T00:55:48;1.80;99.90
20045;DHT22;10183;47.808;9.476;2023-02-13T00:58:15;1.80;99.90
20045;DHT22;10183;47.808;9.476;2023-02-13T01:00:42;1.80;99.90
20045;DHT22;10183;47.808;9.476;2023-02-13T01:03:08;1.70;99.90
20045;DHT22;10183;47.808;9.476;2023-02-13T01:05:35;1.70;99.90
20045;DHT22;10183;47.808;9.476;2023-02-13T01:08:01;1.70;99.90
20045;DHT22;10183;47.808;9.476;2023-02-13T01:10:27;1.70;99.90
20045;DHT22;10183;47.808;9.476;2023-02-13T01:12:53;1.70;99.90
20045;DHT22;10183;47.808;9.476;2023-02-13T01:15:19;1.70;99.90
20045;DHT22;10183;47.808;9.476;2023-02-13T01:17:46;1.70;99.90
20045;DHT22;10183;47.808;9.476;2023-02-13T01:20:12;1.70;99.90
20045;DHT22;10183;47.808;9.476;2023-02-13T01:22:39;1.80;99.90
20045;DHT22;10183;47.808;9.476;2023-02-13T01:25:06;1.70;99.90
20045;DHT22;10183;47.808;9.476;2023-02-13T01:27:32;1.70;99.90
20045;DHT22;10183;47.808;9.476;2023-02-13T01:29:58;1.70;99.90
20045;DHT22;10183;47.808;9.476;2023-02-13T01:32:25;1.80;99.90
20045;DHT22;10183;47.808;9.476;2023-02-13T01:34:51;1.70;99.90
20045;DHT22;10183;47.808;9.476;2023-02-13T01:37:18;1.70;99.90
20045;DHT22;10183;47.808;9.476;2023-02-13T01:39:44;1.70;99.90
20045;DHT22;10183;47.808;9.476;2023-02-13T01:42:23;1.70;99.90
20045;DHT22;10183;47.808;9.476;2023-02-13T01:44:54;1.70;99.90
20045;DHT22;10183;47.808;9.476;2023-02-13T01:52:51;1.70;99.90
20045;DHT22;10183;47.808;9.476;2023-02-13T01:55:21;1.70;99.90
20045;DHT22;10183;47.808;9.476;2023-02-13T01:58:01;1.70;99.90
20045;DHT22;10183;47.808;9.476;2023-02-13T02:00:30;1.70;99.90
20045;DHT22;10183;47.808;9.476;2023-02-13T02:03:34;1.60;99.90
20045;DHT22;10183;47.808;9.476;2023-02-13T02:06:01;1.60;99.90
20045;DHT22;10183;47.808;9.476;2023-02-13T02:08:29;1.60;99.90
20045;DHT22;10183;47.808;9.476;2023-02-13T02:10:57;1.60;99.90
20045;DHT22;10183;47.808;9.476;2023-02-13T02:13:25;1.60;99.90
20045;DHT22;10183;47.808;9.476;2023-02-13T02:15:52;1.60;99.90
20045;DHT22;10183;47.808;9.476;2023-02-13T02:18:22;1.60;99.90
20045;DHT22;10183;47.808;9.476;2023-02-13T02:24:01;1.70;99.90
20045;DHT22;10183;47.808;9.476;2023-02-13T02:30:04;1.60;99.90
20045;DHT22;10183;47.808;9.476;2023-02-13T02:43:27;1.80;99.90
20045;DHT22;10183;47.808;9.476;2023-02-13T02:48:48;1.70;99.90
20045;DHT22;10183;47.808;9.476;2023-02-13T02:57:29;1.70;99.90
20045;DHT22;10183;47.808;9.476;2023-02-13T03:00:17;1.80;99.90
20045;DHT22;10183;47.808;9.476;2023-02-13T03:03:21;1.70;99.90
20045;DHT22;10183;47.808;9.476;2023-02-13T03:06:35;1.70;99.90
20045;DHT22;10183;47.808;9.476;2023-02-13T03:09:05;1.60;99.90
20045;DHT22;10183;47.808;9.476;2023-02-13T03:11:53;1.50;99.90
20045;DHT22;10183;47.808;9.476;2023-02-13T03:14:38;1.50;99.90
20045;DHT22;10183;47.808;9.476;2023-02-13T03:17:05;1.40;99.90
20045;DHT22;10183;47.808;9.476;2023-02-13T03:23:43;1.50;99.90
20045;DHT22;10183;47.808;9.476;2023-02-13T03:26:37;1.50;99.90
20045;DHT22;10183;47.808;9.476;2023-02-13T03:29:24;1.50;99.90
20045;DHT22;10183;47.808;9.476;2023-02-13T03:32:22;1.50;99.90
20045;DHT22;10183;47.808;9.476;2023-02-13T03:41:10;1.60;99.90
20045;DHT22;10183;47.808;9.476;2023-02-13T03:44:12;1.50;99.90
20045;DHT22;10183;47.808;9.476;2023-02-13T03:46:42;1.50;99.90
20045;DHT22;10183;47.808;9.476;2023-02-13T03:49:15;1.40;99.90
20045;DHT22;10183;47.808;9.476;2023-02-13T03:55:14;1.40;99.90
20045;DHT22;10183;47.808;9.476;2023-02-13T03:58:06;1.40;99.90
20045;DHT22;10183;47.808;9.476;2023-02-13T04:00:55;1.40;99.90
20045;DHT22;10183;47.808;9.476;2023-02-13T04:06:29;1.40;99.90
20045;DHT22;10183;47.808;9.476;2023-02-13T04:08:57;1.30;99.90
20045;DHT22;10183;47.808;9.476;2023-02-13T04:11:29;1.40;99.90
20045;DHT22;10183;47.808;9.476;2023-02-13T04:14:06;1.40;99.90
20045;DHT22;10183;47.808;9.476;2023-02-13T04:16:51;1.50;99.90
20045;DHT22;10183;47.808;9.476;2023-02-13T04:19:18;1.50;99.90
20045;DHT22;10183;47.808;9.476;2023-02-13T04:21:48;1.50;99.90
20045;DHT22;10183;47.808;9.476;2023-02-13T04:24:19;1.50;99.90
20045;DHT22;10183;47.808;9.476;2023-02-13T04:26:45;1.40;99.90
20045;DHT22;10183;47.808;9.476;2023-02-13T04:29:12;1.50;99.90
20045;DHT22;10183;47.808;9.476;2023-02-13T04:31:38;1.50;99.90
20045;DHT22;10183;47.808;9.476;2023-02-13T04:34:05;1.50;99.90
20045;DHT22;10183;47.808;9.476;2023-02-13T04:36:31;1.60;99.90
20045;DHT22;10183;47.808;9.476;2023-02-13T04:38:57;1.60;99.90
20045;DHT22;10183;47.808;9.476;2023-02-13T04:41:23;1.60;99.90
20045;DHT22;10183;47.808;9.476;2023-02-13T04:43:50;1.60;99.90
20045;DHT22;10183;47.808;9.476;2023-02-13T04:46:17;1.60;99.90
20045;DHT22;10183;47.808;9.476;2023-02-13T04:48:44;1.60;99.90
20045;DHT22;10183;47.808;9.476;2023-02-13T04:51:10;1.50;99.90
20045;DHT22;10183;47.808;9.476;2023-02-13T04:53:36;1.50;99.90
20045;DHT22;10183;47.808;9.476;2023-02-13T04:56:02;1.40;99.90
20045;DHT22;10183;47.808;9.476;2023-02-13T04:58:28;1.20;99.90
20045;DHT22;10183;47.808;9.476;2023-02-13T05:00:54;1.20;99.90
20045;DHT22;10183;47.808;9.476;2023-02-13T05:03:21;1.30;99.90
20045;DHT22;10183;47.808;9.476;2023-02-13T05:05:47;0.90;99.90
20045;DHT22;10183;47.808;9.476;2023-02-13T05:08:14;0.90;99.90
20045;DHT22;10183;47.808;9.476;2023-02-13T05:10:40;1.00;99.90
20045;DHT22;10183;47.808;9.476;2023-02-13T05:13:07;1.10;99.90
20045;DHT22;10183;47.808;9.476;2023-02-13T05:15:33;1.20;99.90
20045;DHT22;10183;47.808;9.476;2023-02-13T05:17:59;1.20;99.90
20045;DHT22;10183;47.808;9.476;2023-02-13T05:20:25;1.20;99.90
20045;DHT22;10183;47.808;9.476;2023-02-13T05:22:52;1.20;99.90
20045;DHT22;10183;47.808;9.476;2023-02-13T05:25:39;1.30;99.90
20045;DHT22;10183;47.808;9.476;2023-02-13T05:28:06;1.30;99.90
20045;DHT22;10183;47.808;9.476;2023-02-13T05:30:55;1.30;99.90
20045;DHT22;10183;47.808;9.476;2023-02-13T05:33:21;1.30;99.90
20045;DHT22;10183;47.808;9.476;2023-02-13T05:35:48;1.30;99.90
20045;DHT22;10183;47.808;9.476;2023-02-13T05:38:14;1.30;99.90
20045;DHT22;10183;47.808;9.476;2023-02-13T05:40:40;1.20;99.90
20045;DHT22;10183;47.808;9.476;2023-02-13T05:43:06;1.20;99.90
20045;DHT22;10183;47.808;9.476;2023-02-13T05:45:32;1.30;99.90
20045;DHT22;10183;47.808;9.476;2023-02-13T05:47:59;1.20;99.90
20045;DHT22;10183;47.808;9.476;2023-02-13T05:50:25;1.20;99.90
20045;DHT22;10183;47.808;9.476;2023-02-13T05:52:51;1.30;99.90
20045;DHT22;10183;47.808;9.476;2023-02-13T05:55:17;1.30;99.90
20045;DHT22;10183;47.808;9.476;2023-02-13T05:57:43;1.30;99.90
20045;DHT22;10183;47.808;9.476;2023-02-13T06:00:10;1.30;99.90
20045;DHT22;10183;47.808;9.476;2023-02-13T06:02:36;1.30;99.90
20045;DHT22;10183;47.808;9.476;2023-02-13T06:05:02;1.30;99.90
20045;DHT22;10183;47.808;9.476;2023-02-13T06:07:28;1.30;99.90
20045;DHT22;10183;47.808;9.476;2023-02-13T06:09:54;1.20;99.90
20045;DHT22;10183;47.808;9.476;2023-02-13T06:12:23;1.10;99.90
20045;DHT22;10183;47.808;9.476;2023-02-13T06:14:49;1.00;99.90
20045;DHT22;10183;47.808;9.476;2023-02-13T06:17:15;1.00;99.90
20045;DHT22;10183;47.808;9.476;2023-02-13T06:19:41;0.80;99.90
20045;DHT22;10183;47.808;9.476;2023-02-13T06:22:07;0.90;99.90
20045;DHT22;10183;47.808;9.476;2023-02-13T06:24:33;1.00;99.90
20045;DHT22;10183;47.808;9.476;2023-02-13T06:27:00;1.00;99.90
20045;DHT22;10183;47.808;9.476;2023-02-13T06:29:26;1.10;99.90
20045;DHT22;10183;47.808;9.476;2023-02-13T06:31:52;1.00;99.90
20045;DHT22;10183;47.808;9.476;2023-02-13T06:34:18;0.70;99.90
20045;DHT22;10183;47.808;9.476;2023-02-13T06:36:44;0.70;99.90
20045;DHT22;10183;47.808;9.476;2023-02-13T06:39:10;0.60;99.90
20045;DHT22;10183;47.808;9.476;2023-02-13T06:41:36;0.40;99.90
20045;DHT22;10183;47.808;9.476;2023-02-13T06:44:02;0.40;99.90
20045;DHT22;10183;47.808;9.476;2023-02-13T06:46:29;0.30;99.90
20045;DHT22;10183;47.808;9.476;2023-02-13T06:48:55;0.30;99.90
20045;DHT22;10183;47.808;9.476;2023-02-13T06:51:21;0.40;99.90
20045;DHT22;10183;47.808;9.476;2023-02-13T06:53:47;0.30;99.90
20045;DHT22;10183;47.808;9.476;2023-02-13T06:56:13;0.30;99.90
20045;DHT22;10183;47.808;9.476;2023-02-13T06:58:39;0.30;99.90
20045;DHT22;10183;47.808;9.476;2023-02-13T07:01:05;0.30;99.90
20045;DHT22;10183;47.808;9.476;2023-02-13T07:03:32;0.40;99.90
20045;DHT22;10183;47.808;9.476;2023-02-13T07:05:58;0.50;99.90
20045;DHT22;10183;47.808;9.476;2023-02-13T07:08:24;0.70;99.90
20045;DHT22;10183;47.808;9.476;2023-02-13T07:10:50;0.70;99.90
20045;DHT22;10183;47.808;9.476;2023-02-13T07:13:16;0.50;99.90
20045;DHT22;10183;47.808;9.476;2023-02-13T07:15:42;0.30;99.90
20045;DHT22;10183;47.808;9.476;2023-02-13T07:18:09;0.30;99.90
20045;DHT22;10183;47.808;9.476;2023-02-13T07:20:35;0.30;99.90
20045;DHT22;10183;47.808;9.476;2023-02-13T07:23:03;0.40;99.90
20045;DHT22;10183;47.808;9.476;2023-02-13T07:25:31;0.30;99.90
20045;DHT22;10183;47.808;9.476;2023-02-13T07:28:01;0.40;99.90
20045;DHT22;10183;47.808;9.476;2023-02-13T07:30:29;0.50;99.90
20045;DHT22;10183;47.808;9.476;2023-02-13T07:33:02;0.50;99.90
20045;DHT22;10183;47.808;9.476;2023-02-13T07:35:29;0.60;99.90
20045;DHT22;10183;47.808;9.476;2023-02-13T07:37:56;0.70;99.90
20045;DHT22;10183;47.808;9.476;2023-02-13T07:40:22;0.90;99.90
20045;DHT22;10183;47.808;9.476;2023-02-13T07:42:48;0.90;99.90
20045;DHT22;10183;47.808;9.476;2023-02-13T07:45:14;1.10;99.90
20045;DHT22;10183;47.808;9.476;2023-02-13T07:47:41;1.10;99.90
20045;DHT22;10183;47.808;9.476;2023-02-13T07:50:08;1.20;99.90
20045;DHT22;10183;47.808;9.476;2023-02-13T07:52:34;0.80;99.90
20045;DHT22;10183;47.808;9.476;2023-02-13T07:55:03;0.40;99.90
20045;DHT22;10183;47.808;9.476;2023-02-13T07:57:30;0.50;99.90
20045;DHT22;10183;47.808;9.476;2023-02-13T07:59:59;0.40;99.90
20045;DHT22;10183;47.808;9.476;2023-02-13T08:02:25;0.30;99.90
20045;DHT22;10183;47.808;9.476;2023-02-13T08:04:51;0.30;99.90
20045;DHT22;10183;47.808;9.476;2023-02-13T08:07:17;0.40;99.90
20045;DHT22;10183;47.808;9.476;2023-02-13T08:09:44;0.40;99.90
20045;DHT22;10183;47.808;9.476;2023-02-13T08:12:30;0.50;99.90
20045;DHT22;10183;47.808;9.476;2023-02-13T08:14:56;0.60;99.90
20045;DHT22;10183;47.808;9.476;2023-02-13T08:17:22;0.70;99.90
20045;DHT22;10183;47.808;9.476;2023-02-13T08:19:49;0.70;99.90
20045;DHT22;10183;47.808;9.476;2023-02-13T08:22:15;1.00;99.90
20045;DHT22;10183;47.808;9.476;2023-02-13T08:24:41;1.20;99.90
20045;DHT22;10183;47.808;9.476;2023-02-13T08:27:13;1.40;99.90
20045;DHT22;10183;47.808;9.476;2023-02-13T08:29:40;1.60;99.90
20045;DHT22;10183;47.808;9.476;2023-02-13T08:32:06;1.60;99.90
20045;DHT22;10183;47.808;9.476;2023-02-13T08:34:32;1.60;99.90
20045;DHT22;10183;47.808;9.476;2023-02-13T08:37:00;1.60;99.90
20045;DHT22;10183;47.808;9.476;2023-02-13T08:39:26;1.60;99.90
20045;DHT22;10183;47.808;9.476;2023-02-13T08:41:54;1.40;99.90
20045;DHT22;10183;47.808;9.476;2023-02-13T08:44:20;1.30;99.90
20045;DHT22;10183;47.808;9.476;2023-02-13T08:46:47;1.60;99.90
20045;DHT22;10183;47.808;9.476;2023-02-13T08:49:13;1.80;99.90
20045;DHT22;10183;47.808;9.476;2023-02-13T08:51:39;1.90;99.90
20045;DHT22;10183;47.808;9.476;2023-02-13T08:54:06;2.10;99.90
20045;DHT22;10183;47.808;9.476;2023-02-13T08:56:32;2.20;99.90
20045;DHT22;10183;47.808;9.476;2023-02-13T08:58:58;2.40;99.90
20045;DHT22;10183;47.808;9.476;2023-02-13T09:01:24;2.50;99.90
20045;DHT22;10183;47.808;9.476;2023-02-13T09:03:50;2.50;99.90
20045;DHT22;10183;47.808;9.476;2023-02-13T09:06:17;2.50;99.90
20045;DHT22;10183;47.808;9.476;2023-02-13T09:08:43;2.50;99.90
20045;DHT22;10183;47.808;9.476;2023-02-13T09:11:09;2.60;99.90
20045;DHT22;10183;47.808;9.476;2023-02-13T09:13:36;2.60;99.90
20045;DHT22;10183;47.808;9.476;2023-02-13T09:16:05;2.60;99.90
20045;DHT22;10183;47.808;9.476;2023-02-13T09:18:32;2.70;99.90
20045;DHT22;10183;47.808;9.476;2023-02-13T09:21:10;2.80;99.90
20045;DHT22;10183;47.808;9.476;2023-02-13T09:23:38;2.90;99.90
20045;DHT22;10183;47.808;9.476;2023-02-13T09:26:08;2.90;99.90
20045;DHT22;10183;47.808;9.476;2023-02-13T09:28:35;3.00;99.90
20045;DHT22;10183;47.808;9.476;2023-02-13T09:33:32;3.10;99.90
20045;DHT22;10183;47.808;9.476;2023-02-13T09:35:58;3.20;99.90
20045;DHT22;10183;47.808;9.476;2023-02-13T09:38:28;3.20;99.90
20045;DHT22;10183;47.808;9.476;2023-02-13T09:41:04;3.20;99.90
20045;DHT22;10183;47.808;9.476;2023-02-13T09:46:16;3.30;99.90
20045;DHT22;10183;47.808;9.476;2023-02-13T09:48:47;3.40;99.90
20045;DHT22;10183;47.808;9.476;2023-02-13T09:51:19;3.40;99.90
20045;DHT22;10183;47.808;9.476;2023-02-13T09:54:06;3.50;99.90
20045;DHT22;10183;47.808;9.476;2023-02-13T10:00:45;3.50;99.90
20045;DHT22;10183;47.808;9.476;2023-02-13T10:05:46;2.50;99.90
20045;DHT22;10183;47.808;9.476;2023-02-13T10:16:13;2.50;99.90
20045;DHT22;10183;47.808;9.476;2023-02-13T10:18:51;2.20;99.90
20045;DHT22;10183;47.808;9.476;2023-02-13T10:21:26;2.00;99.90
20045;DHT22;10183;47.808;9.476;2023-02-13T10:24:10;1.80;99.90
20045;DHT22;10183;47.808;9.476;2023-02-13T10:26:40;1.60;99.90
20045;DHT22;10183;47.808;9.476;2023-02-13T10:29:20;1.50;99.90
20045;DHT22;10183;47.808;9.476;2023-02-13T10:32:09;1.60;99.90
20045;DHT22;10183;47.808;9.476;2023-02-13T10:34:42;1.60;99.90
20045;DHT22;10183;47.808;9.476;2023-02-13T10:37:14;1.70;99.90
20045;DHT22;10183;47.808;9.476;2023-02-13T10:39:42;1.60;99.90
20045;DHT22;10183;47.808;9.476;2023-02-13T10:42:20;1.70;99.90
20045;DHT22;10183;47.808;9.476;2023-02-13T10:51:32;1.70;99.90
20045;DHT22;10183;47.808;9.476;2023-02-13T11:04:58;1.90;99.90
20045;DHT22;10183;47.808;9.476;2023-02-13T11:07:26;1.80;99.90
20045;DHT22;10183;47.808;9.476;2023-02-13T11:09:57;1.80;99.90
20045;DHT22;10183;47.808;9.476;2023-02-13T11:12:30;1.80;99.90
20045;DHT22;10183;47.808;9.476;2023-02-13T11:14:58;1.80;99.90
20045;DHT22;10183;47.808;9.476;2023-02-13T11:17:36;1.80;99.90
20045;DHT22;10183;47.808;9.476;2023-02-13T11:20:43;1.90;99.90
20045;DHT22;10183;47.808;9.476;2023-02-13T11:26:13;2.10;99.90
20045;DHT22;10183;47.808;9.476;2023-02-13T11:28:53;2.20;99.90
20045;DHT22;10183;47.808;9.476;2023-02-13T11:33:55;2.30;99.90
20045;DHT22;10183;47.808;9.476;2023-02-13T11:36:33;2.20;99.90
20045;DHT22;10183;47.808;9.476;2023-02-13T11:39:05;2.20;99.90
20045;DHT22;10183;47.808;9.476;2023-02-13T11:41:39;2.00;99.90
20045;DHT22;10183;47.808;9.476;2023-02-13T11:44:22;2.10;99.90
20045;DHT22;10183;47.808;9.476;2023-02-13T11:46:52;2.10;99.90
20045;DHT22;10183;47.808;9.476;2023-02-13T11:49:25;2.20;99.90
20045;DHT22;10183;47.808;9.476;2023-02-13T11:51:55;2.70;99.90
20045;DHT22;10183;47.808;9.476;2023-02-13T11:57:02;3.10;99.90
20045;DHT22;10183;47.808;9.476;2023-02-13T11:59:38;3.60;99.90
20045;DHT22;10183;47.808;9.476;2023-02-13T12:02:20;3.90;99.90
20045;DHT22;10183;47.808;9.476;2023-02-13T12:04:48;3.30;99.90
20045;DHT22;10183;47.808;9.476;2023-02-13T12:07:29;3.70;99.90
20045;DHT22;10183;47.808;9.476;2023-02-13T12:10:07;3.50;99.90
20045;DHT22;10183;47.808;9.476;2023-02-13T12:15:34;2.50;99.90
20045;DHT22;10183;47.808;9.476;2023-02-13T12:18:28;2.60;99.90
20045;DHT22;10183;47.808;9.476;2023-02-13T12:30:08;2.70;99.90
20045;DHT22;10183;47.808;9.476;2023-02-13T12:33:44;2.70;99.90
20045;DHT22;10183;47.808;9.476;2023-02-13T12:41:15;3.00;99.90
20045;DHT22;10183;47.808;9.476;2023-02-13T12:46:39;3.30;99.90
20045;DHT22;10183;47.808;9.476;2023-02-13T12:57:43;4.60;99.90
20045;DHT22;10183;47.808;9.476;2023-02-13T13:14:05;4.70;99.90
20045;DHT22;10183;47.808;9.476;2023-02-13T13:16:59;5.20;99.90
20045;DHT22;10183;47.808;9.476;2023-02-13T13:19:57;4.40;99.90
20045;DHT22;10183;47.808;9.476;2023-02-13T13:22:49;4.10;99.90
20045;DHT22;10183;47.808;9.476;2023-02-13T13:25:40;4.70;99.90
20045;DHT22;10183;47.808;9.476;2023-02-13T13:28:28;5.30;99.90
20045;DHT22;10183;47.808;9.476;2023-02-13T13:30:57;5.70;99.90
20045;DHT22;10183;47.808;9.476;2023-02-13T13:33:25;4.40;99.90
20045;DHT22;10183;47.808;9.476;2023-02-13T13:39:35;4.10;99.90
20045;DHT22;10183;47.808;9.476;2023-02-13T13:41:55;4.80;99.90
20045;DHT22;10183;47.808;9.476;2023-02-13T13:49:59;6.20;99.90
20045;DHT22;10183;47.808;9.476;2023-02-13T13:52:32;6.40;99.90
20045;DHT22;10183;47.808;9.476;2023-02-13T13:55:00;6.30;99.90
20045;DHT22;10183;47.808;9.476;2023-02-13T14:05:26;10.00;99.90
20045;DHT22;10183;47.808;9.476;2023-02-13T14:13:59;15.90;99.90
20045;DHT22;10183;47.808;9.476;2023-02-13T14:16:44;16.90;99.00
20045;DHT22;10183;47.808;9.476;2023-02-13T14:19:28;16.30;81.90
20045;DHT22;10183;47.808;9.476;2023-02-13T14:29:52;18.70;66.90
20045;DHT22;10183;47.808;9.476;2023-02-13T14:32:36;19.10;63.00
20045;DHT22;10183;47.808;9.476;2023-02-13T14:38:06;21.60;51.20
20045;DHT22;10183;47.808;9.476;2023-02-13T14:40:50;20.90;48.30
20045;DHT22;10183;47.808;9.476;2023-02-13T14:43:39;20.20;45.40
20045;DHT22;10183;47.808;9.476;2023-02-13T14:49:02;17.60;52.00
20045;DHT22;10183;47.808;9.476;2023-02-13T14:51:37;16.10;60.20
20045;DHT22;10183;47.808;9.476;2023-02-13T14:55:29;15.60;68.50
20045;DHT22;10183;47.808;9.476;2023-02-13T14:57:30;15.30;76.90
20045;DHT22;10183;47.808;9.476;2023-02-13T15:02:48;14.90;94.80
20045;DHT22;10183;47.808;9.476;2023-02-13T15:05:18;14.50;98.10
20045;DHT22;10183;47.808;9.476;2023-02-13T15:08:12;14.40;98.50
20045;DHT22;10183;47.808;9.476;2023-02-13T15:10:47;12.60;99.90
20045;DHT22;10183;47.808;9.476;2023-02-13T15:13:33;13.90;99.90
20045;DHT22;10183;47.808;9.476;2023-02-13T15:16:08;14.00;99.90
20045;DHT22;10183;47.808;9.476;2023-02-13T15:18:48;14.50;99.90
20045;DHT22;10183;47.808;9.476;2023-02-13T15:21:23;14.80;99.90
20045;DHT22;10183;47.808;9.476;2023-02-13T15:23:55;14.80;99.30
20045;DHT22;10183;47.808;9.476;2023-02-13T15:26:23;15.10;96.80
20045;DHT22;10183;47.808;9.476;2023-02-13T15:29:01;14.80;97.00
20045;DHT22;10183;47.808;9.476;2023-02-13T15:31:32;14.90;98.60
20045;DHT22;10183;47.808;9.476;2023-02-13T15:33:59;15.10;97.10
20045;DHT22;10183;47.808;9.476;2023-02-13T15:36:39;15.40;94.90
20045;DHT22;10183;47.808;9.476;2023-02-13T15:39:06;15.30;95.00
20045;DHT22;10183;47.808;9.476;2023-02-13T15:41:37;15.50;92.30
20045;DHT22;10183;47.808;9.476;2023-02-13T15:44:05;14.70;92.00
20045;DHT22;10183;47.808;9.476;2023-02-13T15:46:32;14.40;97.50
20045;DHT22;10183;47.808;9.476;2023-02-13T15:49:16;14.00;99.90
20045;DHT22;10183;47.808;9.476;2023-02-13T15:51:44;13.20;99.90
20045;DHT22;10183;47.808;9.476;2023-02-13T15:54:26;12.20;99.90
20045;DHT22;10183;47.808;9.476;2023-02-13T15:56:55;10.30;99.90
20045;DHT22;10183;47.808;9.476;2023-02-13T15:59:24;9.30;99.90
20045;DHT22;10183;47.808;9.476;2023-02-13T16:01:51;9.00;99.90
20045;DHT22;10183;47.808;9.476;2023-02-13T16:04:19;8.50;99.90
20045;DHT22;10183;47.808;9.476;2023-02-13T16:06:53;7.60;99.90
20045;DHT22;10183;47.808;9.476;2023-02-13T16:09:33;6.80;99.90
20045;DHT22;10183;47.808;9.476;2023-02-13T16:12:22;6.00;99.90
20045;DHT22;10183;47.808;9.476;2023-02-13T16:15:00;5.40;99.90
20045;DHT22;10183;47.808;9.476;2023-02-13T16:17:28;5.00;99.90
20045;DHT22;10183;47.808;9.476;2023-02-13T16:20:03;4.60;99.90
20045;DHT22;10183;47.808;9.476;2023-02-13T16:27:56;4.20;99.90
20045;DHT22;10183;47.808;9.476;2023-02-13T16:30:36;4.00;99.90
20045;DHT22;10183;47.808;9.476;2023-02-13T16:40:50;3.10;99.90
20045;DHT22;10183;47.808;9.476;2023-02-13T16:43:45;3.00;99.90
20045;DHT22;10183;47.808;9.476;2023-02-13T16:54:17;2.30;99.90
20045;DHT22;10183;47.808;9.476;2023-02-13T17:01:42;2.10;99.90
20045;DHT22;10183;47.808;9.476;2023-02-13T17:04:27;2.10;99.90
20045;DHT22;10183;47.808;9.476;2023-02-13T17:06:53;1.90;99.90
20045;DHT22;10183;47.808;9.476;2023-02-13T17:09:21;1.90;99.90
20045;DHT22;10183;47.808;9.476;2023-02-13T17:11:51;1.80;99.90
20045;DHT22;10183;47.808;9.476;2023-02-13T17:14:18;1.70;99.90
20045;DHT22;10183;47.808;9.476;2023-02-13T17:16:46;1.70;99.90
20045;DHT22;10183;47.808;9.476;2023-02-13T17:19:12;1.70;99.90
20045;DHT22;10183;47.808;9.476;2023-02-13T17:21:39;1.60;99.90
20045;DHT22;10183;47.808;9.476;2023-02-13T17:24:06;1.50;99.90
20045;DHT22;10183;47.808;9.476;2023-02-13T17:26:33;1.50;99.90
20045;DHT22;10183;47.808;9.476;2023-02-13T17:28:59;1.40;99.90
20045;DHT22;10183;47.808;9.476;2023-02-13T17:31:26;1.40;99.90
20045;DHT22;10183;47.808;9.476;2023-02-13T17:33:52;1.30;99.90
20045;DHT22;10183;47.808;9.476;2023-02-13T17:36:19;1.20;99.90
20045;DHT22;10183;47.808;9.476;2023-02-13T17:38:45;1.20;99.90
20045;DHT22;10183;47.808;9.476;2023-02-13T17:41:13;1.20;99.90
20045;DHT22;10183;47.808;9.476;2023-02-13T17:43:40;1.20;99.90
20045;DHT22;10183;47.808;9.476;2023-02-13T17:46:07;1.20;99.90
20045;DHT22;10183;47.808;9.476;2023-02-13T17:48:33;1.20;99.90
20045;DHT22;10183;47.808;9.476;2023-02-13T17:50:59;1.20;99.90
20045;DHT22;10183;47.808;9.476;2023-02-13T17:53:27;1.20;99.90
20045;DHT22;10183;47.808;9.476;2023-02-13T17:55:57;1.30;99.90
20045;DHT22;10183;47.808;9.476;2023-02-13T17:58:23;1.30;99.90
20045;DHT22;10183;47.808;9.476;2023-02-13T18:00:50;1.30;99.90
20045;DHT22;10183;47.808;9.476;2023-02-13T18:03:16;1.20;99.90
20045;DHT22;10183;47.808;9.476;2023-02-13T18:05:46;1.20;99.90
20045;DHT22;10183;47.808;9.476;2023-02-13T18:08:13;1.30;99.90
20045;DHT22;10183;47.808;9.476;2023-02-13T18:10:39;1.30;99.90
20045;DHT22;10183;47.808;9.476;2023-02-13T18:13:06;1.30;99.90
20045;DHT22;10183;47.808;9.476;2023-02-13T18:15:37;1.30;99.90
20045;DHT22;10183;47.808;9.476;2023-02-13T18:18:03;1.20;99.90
20045;DHT22;10183;47.808;9.476;2023-02-13T18:20:30;1.20;99.90
20045;DHT22;10183;47.808;9.476;2023-02-13T18:22:57;1.20;99.90
20045;DHT22;10183;47.808;9.476;2023-02-13T18:25:23;1.30;99.90
20045;DHT22;10183;47.808;9.476;2023-02-13T18:27:49;1.30;99.90
20045;DHT22;10183;47.808;9.476;2023-02-13T18:30:18;1.30;99.90
20045;DHT22;10183;47.808;9.476;2023-02-13T18:32:45;1.30;99.90
20045;DHT22;10183;47.808;9.476;2023-02-13T18:35:15;1.40;99.90
20045;DHT22;10183;47.808;9.476;2023-02-13T18:37:42;1.30;99.90
20045;DHT22;10183;47.808;9.476;2023-02-13T18:40:09;1.30;99.90
20045;DHT22;10183;47.808;9.476;2023-02-13T18:42:35;1.20;99.90
20045;DHT22;10183;47.808;9.476;2023-02-13T18:45:02;1.20;99.90
20045;DHT22;10183;47.808;9.476;2023-02-13T18:47:28;1.10;99.90
20045;DHT22;10183;47.808;9.476;2023-02-13T18:49:54;1.10;99.90
20045;DHT22;10183;47.808;9.476;2023-02-13T18:52:20;1.10;99.90
20045;DHT22;10183;47.808;9.476;2023-02-13T18:54:47;1.10;99.90
20045;DHT22;10183;47.808;9.476;2023-02-13T18:57:13;1.00;99.90
20045;DHT22;10183;47.808;9.476;2023-02-13T18:59:39;0.90;99.90
20045;DHT22;10183;47.808;9.476;2023-02-13T19:02:06;0.80;99.90
20045;DHT22;10183;47.808;9.476;2023-02-13T19:04:32;0.70;99.90
20045;DHT22;10183;47.808;9.476;2023-02-13T19:07:00;0.70;99.90
20045;DHT22;10183;47.808;9.476;2023-02-13T19:09:27;0.60;99.90
20045;DHT22;10183;47.808;9.476;2023-02-13T19:11:53;0.70;99.90
20045;DHT22;10183;47.808;9.476;2023-02-13T19:14:19;0.70;99.90
20045;DHT22;10183;47.808;9.476;2023-02-13T19:16:45;0.80;99.90
20045;DHT22;10183;47.808;9.476;2023-02-13T19:19:12;0.80;99.90
20045;DHT22;10183;47.808;9.476;2023-02-13T19:21:38;0.80;99.90
20045;DHT22;10183;47.808;9.476;2023-02-13T19:24:07;0.80;99.90
20045;DHT22;10183;47.808;9.476;2023-02-13T19:26:34;0.80;99.90
20045;DHT22;10183;47.808;9.476;2023-02-13T19:29:00;0.70;99.90
20045;DHT22;10183;47.808;9.476;2023-02-13T19:31:28;0.70;99.90